sensor_id;sensor_type;location;lat;lon;timestamp;temperature;humidity
21787;DHT22;11055;50.870;4.316;2022-11-14T00:00:00;11.90;99.90
21787;DHT22;11055;50.870;4.316;2022-11-14T00:02:27;11.90;99.90
21787;DHT22;11055;50.870;4.316;2022-11-14T00:04:52;12.00;99.90
21787;DHT22;11055;50.870;4.316;2022-11-14T00:07:18;12.00;99.90
21787;DHT22;11055;50.870;4.316;2022-11-14T00:09:44;12.00;99.90
21787;DHT22;11055;50.870;4.316;2022-11-14T00:12:10;11.90;99.90
21787;DHT22;11055;50.870;4.316;2022-11-14T00:14:36;11.80;99.90
21787;DHT22;11055;50.870;4.316;2022-11-14T00:17:02;11.70;99.90
21787;DHT22;11055;50.870;4.316;2022-11-14T00:19:28;11.60;99.90
21787;DHT22;11055;50.870;4.316;2022-11-14T00:21:54;11.50;99.90
21787;DHT22;11055;50.870;4.316;2022-11-14T00:24:20;11.50;99.90
21787;DHT22;11055;50.870;4.316;2022-11-14T00:26:46;11.40;99.90
21787;DHT22;11055;50.870;4.316;2022-11-14T00:29:13;11.30;99.90
21787;DHT22;11055;50.870;4.316;2022-11-14T00:31:39;11.30;99.90
21787;DHT22;11055;50.870;4.316;2022-11-14T00:34:05;11.40;99.90
21787;DHT22;11055;50.870;4.316;2022-11-14T00:36:31;11.40;99.90
21787;DHT22;11055;50.870;4.316;2022-11-14T00:38:56;11.40;99.90
21787;DHT22;11055;50.870;4.316;2022-11-14T00:41:22;11.40;99.90
21787;DHT22;11055;50.870;4.316;2022-11-14T00:43:48;11.30;99.90
21787;DHT22;11055;50.870;4.316;2022-11-14T00:46:14;11.30;99.90
21787;DHT22;11055;50.870;4.316;2022-11-14T00:48:39;11.10;99.90
21787;DHT22;11055;50.870;4.316;2022-11-14T00:51:05;11.20;99.90
21787;DHT22;11055;50.870;4.316;2022-11-14T00:53:31;11.20;99.90
21787;DHT22;11055;50.870;4.316;2022-11-14T00:55:56;11.20;99.90
21787;DHT22;11055;50.870;4.316;2022-11-14T00:58:22;10.90;99.90
21787;DHT22;11055;50.870;4.316;2022-11-14T01:00:48;10.60;99.90
21787;DHT22;11055;50.870;4.316;2022-11-14T01:03:13;10.40;99.90
21787;DHT22;11055;50.870;4.316;2022-11-14T01:05:49;10.30;99.90
21787;DHT22;11055;50.870;4.316;2022-11-14T01:08:17;10.30;99.90
21787;DHT22;11055;50.870;4.316;2022-11-14T01:10:45;10.30;99.90
21787;DHT22;11055;50.870;4.316;2022-11-14T01:13:11;10.50;99.90
21787;DHT22;11055;50.870;4.316;2022-11-14T01:15:42;10.80;99.90
21787;DHT22;11055;50.870;4.316;2022-11-14T01:18:14;11.00;99.90
21787;DHT22;11055;50.870;4.316;2022-11-14T01:20:41;11.00;99.90
21787;DHT22;11055;50.870;4.316;2022-11-14T01:23:08;11.00;99.90
21787;DHT22;11055;50.870;4.316;2022-11-14T01:25:35;11.10;99.90
21787;DHT22;11055;50.870;4.316;2022-11-14T01:28:13;11.20;99.90
21787;DHT22;11055;50.870;4.316;2022-11-14T01:30:39;11.30;99.90
21787;DHT22;11055;50.870;4.316;2022-11-14T01:33:06;11.40;99.90
21787;DHT22;11055;50.870;4.316;2022-11-14T01:35:32;11.50;99.90
21787;DHT22;11055;50.870;4.316;2022-11-14T01:37:59;11.50;99.90
21787;DHT22;11055;50.870;4.316;2022-11-14T01:40:25;11.60;99.90
21787;DHT22;11055;50.870;4.316;2022-11-14T01:43:27;11.60;99.90
21787;DHT22;11055;50.870;4.316;2022-11-14T01:54:02;11.40;99.90
21787;DHT22;11055;50.870;4.316;2022-11-14T01:56:33;11.40;99.90
21787;DHT22;11055;50.870;4.316;2022-11-14T01:59:10;11.40;99.90
21787;DHT22;11055;50.870;4.316;2022-11-14T02:01:43;11.40;99.90
21787;DHT22;11055;50.870;4.316;2022-11-14T02:04:14;11.30;99.90
21787;DHT22;11055;50.870;4.316;2022-11-14T02:06:42;11.20;99.90
21787;DHT22;11055;50.870;4.316;2022-11-14T02:09:08;11.20;99.90
21787;DHT22;11055;50.870;4.316;2022-11-14T02:11:37;11.00;99.90
21787;DHT22;11055;50.870;4.316;2022-11-14T02:14:05;11.00;99.90
21787;DHT22;11055;50.870;4.316;2022-11-14T02:16:31;11.10;99.90
21787;DHT22;11055;50.870;4.316;2022-11-14T02:18:56;11.00;99.90
21787;DHT22;11055;50.870;4.316;2022-11-14T02:21:22;10.80;99.90
21787;DHT22;11055;50.870;4.316;2022-11-14T02:23:48;10.90;99.90
21787;DHT22;11055;50.870;4.316;2022-11-14T02:26:20;10.90;99.90
21787;DHT22;11055;50.870;4.316;2022-11-14T02:28:46;11.00;99.90
21787;DHT22;11055;50.870;4.316;2022-11-14T02:31:13;11.10;99.90
21787;DHT22;11055;50.870;4.316;2022-11-14T02:33:40;11.20;99.90
21787;DHT22;11055;50.870;4.316;2022-11-14T02:36:06;11.20;99.90
21787;DHT22;11055;50.870;4.316;2022-11-14T02:38:31;11.20;99.90
21787;DHT22;11055;50.870;4.316;2022-11-14T02:40:59;11.20;99.90
21787;DHT22;11055;50.870;4.316;2022-11-14T02:43:25;11.20;99.90
21787;DHT22;11055;50.870;4.316;2022-11-14T02:45:50;10.80;99.90
21787;DHT22;11055;50.870;4.316;2022-11-14T02:48:16;10.50;99.90
21787;DHT22;11055;50.870;4.316;2022-11-14T02:50:42;10.50;99.90
21787;DHT22;11055;50.870;4.316;2022-11-14T02:53:07;10.70;99.90
21787;DHT22;11055;50.870;4.316;2022-11-14T02:55:33;10.80;99.90
21787;DHT22;11055;50.870;4.316;2022-11-14T02:57:59;10.90;99.90
21787;DHT22;11055;50.870;4.316;2022-11-14T03:00:24;11.00;99.90
21787;DHT22;11055;50.870;4.316;2022-11-14T03:02:52;10.90;99.90
21787;DHT22;11055;50.870;4.316;2022-11-14T03:05:18;11.00;99.90
21787;DHT22;11055;50.870;4.316;2022-11-14T03:07:44;11.00;99.90
21787;DHT22;11055;50.870;4.316;2022-11-14T03:10:10;11.00;99.90
21787;DHT22;11055;50.870;4.316;2022-11-14T03:12:36;10.90;99.90
21787;DHT22;11055;50.870;4.316;2022-11-14T03:15:03;11.00;99.90
21787;DHT22;11055;50.870;4.316;2022-11-14T03:17:33;10.90;99.90
21787;DHT22;11055;50.870;4.316;2022-11-14T03:19:59;11.00;99.90
21787;DHT22;11055;50.870;4.316;2022-11-14T03:22:26;10.70;99.90
21787;DHT22;11055;50.870;4.316;2022-11-14T03:24:51;10.20;99.90
21787;DHT22;11055;50.870;4.316;2022-11-14T03:27:17;10.00;99.90
21787;DHT22;11055;50.870;4.316;2022-11-14T03:29:43;10.10;99.90
21787;DHT22;11055;50.870;4.316;2022-11-14T03:32:08;10.20;99.90
21787;DHT22;11055;50.870;4.316;2022-11-14T03:34:34;10.40;99.90
21787;DHT22;11055;50.870;4.316;2022-11-14T03:37:00;10.50;99.90
21787;DHT22;11055;50.870;4.316;2022-11-14T03:39:26;10.60;99.90
21787;DHT22;11055;50.870;4.316;2022-11-14T03:41:52;10.60;99.90
21787;DHT22;11055;50.870;4.316;2022-11-14T03:44:17;10.60;99.90
21787;DHT22;11055;50.870;4.316;2022-11-14T03:46:43;10.60;99.90
21787;DHT22;11055;50.870;4.316;2022-11-14T03:49:09;10.60;99.90
21787;DHT22;11055;50.870;4.316;2022-11-14T03:51:34;10.70;99.90
21787;DHT22;11055;50.870;4.316;2022-11-14T03:54:00;10.70;99.90
21787;DHT22;11055;50.870;4.316;2022-11-14T03:56:26;10.70;99.90
21787;DHT22;11055;50.870;4.316;2022-11-14T03:58:51;10.60;99.90
21787;DHT22;11055;50.870;4.316;2022-11-14T04:01:17;10.60;99.90
21787;DHT22;11055;50.870;4.316;2022-11-14T04:03:42;10.50;99.90
21787;DHT22;11055;50.870;4.316;2022-11-14T04:06:08;10.40;99.90
21787;DHT22;11055;50.870;4.316;2022-11-14T04:08:34;10.40;99.90
21787;DHT22;11055;50.870;4.316;2022-11-14T04:11:00;10.40;99.90
21787;DHT22;11055;50.870;4.316;2022-11-14T04:13:26;10.40;99.90
21787;DHT22;11055;50.870;4.316;2022-11-14T04:15:58;10.30;99.90
21787;DHT22;11055;50.870;4.316;2022-11-14T04:18:25;10.20;99.90
21787;DHT22;11055;50.870;4.316;2022-11-14T04:20:51;10.20;99.90
21787;DHT22;11055;50.870;4.316;2022-11-14T04:23:17;10.20;99.90
21787;DHT22;11055;50.870;4.316;2022-11-14T04:25:44;10.20;99.90
21787;DHT22;11055;50.870;4.316;2022-11-14T04:28:10;10.10;99.90
21787;DHT22;11055;50.870;4.316;2022-11-14T04:30:36;10.10;99.90
21787;DHT22;11055;50.870;4.316;2022-11-14T04:33:02;10.10;99.90
21787;DHT22;11055;50.870;4.316;2022-11-14T04:35:27;10.10;99.90
21787;DHT22;11055;50.870;4.316;2022-11-14T04:37:53;10.10;99.90
21787;DHT22;11055;50.870;4.316;2022-11-14T04:40:18;10.10;99.90
21787;DHT22;11055;50.870;4.316;2022-11-14T04:42:44;10.10;99.90
21787;DHT22;11055;50.870;4.316;2022-11-14T04:45:10;10.20;99.90
21787;DHT22;11055;50.870;4.316;2022-11-14T04:47:35;10.20;99.90
21787;DHT22;11055;50.870;4.316;2022-11-14T04:50:02;10.20;99.90
21787;DHT22;11055;50.870;4.316;2022-11-14T04:52:28;10.20;99.90
21787;DHT22;11055;50.870;4.316;2022-11-14T04:54:53;10.20;99.90
21787;DHT22;11055;50.870;4.316;2022-11-14T04:57:19;10.20;99.90
21787;DHT22;11055;50.870;4.316;2022-11-14T04:59:44;10.20;99.90
21787;DHT22;11055;50.870;4.316;2022-11-14T05:02:10;10.20;99.90
21787;DHT22;11055;50.870;4.316;2022-11-14T05:04:36;10.30;99.90
21787;DHT22;11055;50.870;4.316;2022-11-14T05:07:01;10.40;99.90
21787;DHT22;11055;50.870;4.316;2022-11-14T05:09:27;10.30;99.90
21787;DHT22;11055;50.870;4.316;2022-11-14T05:11:53;10.30;99.90
21787;DHT22;11055;50.870;4.316;2022-11-14T05:14:18;10.10;99.90
21787;DHT22;11055;50.870;4.316;2022-11-14T05:16:44;9.90;99.90
21787;DHT22;11055;50.870;4.316;2022-11-14T05:19:10;9.90;99.90
21787;DHT22;11055;50.870;4.316;2022-11-14T05:21:35;9.70;99.90
21787;DHT22;11055;50.870;4.316;2022-11-14T05:24:01;9.40;99.90
21787;DHT22;11055;50.870;4.316;2022-11-14T05:26:26;9.10;99.90
21787;DHT22;11055;50.870;4.316;2022-11-14T05:28:52;9.10;99.90
21787;DHT22;11055;50.870;4.316;2022-11-14T05:31:18;8.90;99.90
21787;DHT22;11055;50.870;4.316;2022-11-14T05:33:44;8.60;99.90
21787;DHT22;11055;50.870;4.316;2022-11-14T05:36:12;8.60;99.90
21787;DHT22;11055;50.870;4.316;2022-11-14T05:38:38;8.60;99.90
21787;DHT22;11055;50.870;4.316;2022-11-14T05:41:12;8.80;99.90
21787;DHT22;11055;50.870;4.316;2022-11-14T05:43:38;9.00;99.90
21787;DHT22;11055;50.870;4.316;2022-11-14T05:46:06;9.30;99.90
21787;DHT22;11055;50.870;4.316;2022-11-14T05:48:33;9.50;99.90
21787;DHT22;11055;50.870;4.316;2022-11-14T05:51:00;9.60;99.90
21787;DHT22;11055;50.870;4.316;2022-11-14T05:53:27;9.70;99.90
21787;DHT22;11055;50.870;4.316;2022-11-14T05:55:53;9.80;99.90
21787;DHT22;11055;50.870;4.316;2022-11-14T05:58:20;9.80;99.90
21787;DHT22;11055;50.870;4.316;2022-11-14T06:00:45;9.80;99.90
21787;DHT22;11055;50.870;4.316;2022-11-14T06:03:11;9.80;99.90
21787;DHT22;11055;50.870;4.316;2022-11-14T06:05:39;9.80;99.90
21787;DHT22;11055;50.870;4.316;2022-11-14T06:08:05;9.80;99.90
21787;DHT22;11055;50.870;4.316;2022-11-14T06:10:30;9.80;99.90
21787;DHT22;11055;50.870;4.316;2022-11-14T06:12:56;9.80;99.90
21787;DHT22;11055;50.870;4.316;2022-11-14T06:15:22;9.90;99.90
21787;DHT22;11055;50.870;4.316;2022-11-14T06:17:47;10.00;99.90
21787;DHT22;11055;50.870;4.316;2022-11-14T06:20:13;10.00;99.90
21787;DHT22;11055;50.870;4.316;2022-11-14T06:22:40;9.90;99.90
21787;DHT22;11055;50.870;4.316;2022-11-14T06:25:06;9.90;99.90
21787;DHT22;11055;50.870;4.316;2022-11-14T06:27:32;9.70;99.90
21787;DHT22;11055;50.870;4.316;2022-11-14T06:29:57;9.60;99.90
21787;DHT22;11055;50.870;4.316;2022-11-14T06:32:23;9.60;99.90
21787;DHT22;11055;50.870;4.316;2022-11-14T06:34:48;9.60;99.90
21787;DHT22;11055;50.870;4.316;2022-11-14T06:37:14;9.60;99.90
21787;DHT22;11055;50.870;4.316;2022-11-14T06:39:40;9.80;99.90
21787;DHT22;11055;50.870;4.316;2022-11-14T06:42:05;9.80;99.90
21787;DHT22;11055;50.870;4.316;2022-11-14T06:44:31;9.80;99.90
21787;DHT22;11055;50.870;4.316;2022-11-14T06:46:56;9.80;99.90
21787;DHT22;11055;50.870;4.316;2022-11-14T06:49:22;9.90;99.90
21787;DHT22;11055;50.870;4.316;2022-11-14T06:51:50;9.90;99.90
21787;DHT22;11055;50.870;4.316;2022-11-14T06:54:15;9.90;99.90
21787;DHT22;11055;50.870;4.316;2022-11-14T06:56:41;9.90;99.90
21787;DHT22;11055;50.870;4.316;2022-11-14T06:59:07;9.90;99.90
21787;DHT22;11055;50.870;4.316;2022-11-14T07:01:33;9.90;99.90
21787;DHT22;11055;50.870;4.316;2022-11-14T07:03:58;9.90;99.90
21787;DHT22;11055;50.870;4.316;2022-11-14T07:06:27;10.00;99.90
21787;DHT22;11055;50.870;4.316;2022-11-14T07:08:55;10.00;99.90
21787;DHT22;11055;50.870;4.316;2022-11-14T07:11:26;10.00;99.90
21787;DHT22;11055;50.870;4.316;2022-11-14T07:14:01;10.00;99.90
21787;DHT22;11055;50.870;4.316;2022-11-14T07:16:32;10.00;99.90
21787;DHT22;11055;50.870;4.316;2022-11-14T07:19:01;10.00;99.90
21787;DHT22;11055;50.870;4.316;2022-11-14T07:21:28;10.00;99.90
21787;DHT22;11055;50.870;4.316;2022-11-14T07:23:54;10.00;99.90
21787;DHT22;11055;50.870;4.316;2022-11-14T07:26:20;9.80;99.90
21787;DHT22;11055;50.870;4.316;2022-11-14T07:28:46;9.70;99.90
21787;DHT22;11055;50.870;4.316;2022-11-14T07:31:16;9.70;99.90
21787;DHT22;11055;50.870;4.316;2022-11-14T07:33:43;9.60;99.90
21787;DHT22;11055;50.870;4.316;2022-11-14T07:36:10;9.60;99.90
21787;DHT22;11055;50.870;4.316;2022-11-14T07:38:37;9.50;99.90
21787;DHT22;11055;50.870;4.316;2022-11-14T07:41:08;9.30;99.90
21787;DHT22;11055;50.870;4.316;2022-11-14T07:43:34;8.90;99.90
21787;DHT22;11055;50.870;4.316;2022-11-14T07:46:05;8.50;99.90
21787;DHT22;11055;50.870;4.316;2022-11-14T07:48:31;8.20;99.90
21787;DHT22;11055;50.870;4.316;2022-11-14T07:50:58;8.00;99.90
21787;DHT22;11055;50.870;4.316;2022-11-14T07:53:25;7.90;99.90
21787;DHT22;11055;50.870;4.316;2022-11-14T07:55:50;7.90;99.90
21787;DHT22;11055;50.870;4.316;2022-11-14T07:58:16;7.90;99.90
21787;DHT22;11055;50.870;4.316;2022-11-14T08:00:41;8.20;99.90
21787;DHT22;11055;50.870;4.316;2022-11-14T08:03:07;8.40;99.90
21787;DHT22;11055;50.870;4.316;2022-11-14T08:05:33;8.70;99.90
21787;DHT22;11055;50.870;4.316;2022-11-14T08:07:59;8.60;99.90
21787;DHT22;11055;50.870;4.316;2022-11-14T08:10:25;8.60;99.90
21787;DHT22;11055;50.870;4.316;2022-11-14T08:12:58;8.60;99.90
21787;DHT22;11055;50.870;4.316;2022-11-14T08:15:24;8.60;99.90
21787;DHT22;11055;50.870;4.316;2022-11-14T08:17:50;8.80;99.90
21787;DHT22;11055;50.870;4.316;2022-11-14T08:20:16;8.80;99.90
21787;DHT22;11055;50.870;4.316;2022-11-14T08:22:41;9.00;99.90
21787;DHT22;11055;50.870;4.316;2022-11-14T08:25:07;9.20;99.90
21787;DHT22;11055;50.870;4.316;2022-11-14T08:27:33;9.30;99.90
21787;DHT22;11055;50.870;4.316;2022-11-14T08:29:58;9.40;99.90
21787;DHT22;11055;50.870;4.316;2022-11-14T08:32:24;9.20;99.90
21787;DHT22;11055;50.870;4.316;2022-11-14T08:34:50;9.00;99.90
21787;DHT22;11055;50.870;4.316;2022-11-14T08:37:15;8.90;99.90
21787;DHT22;11055;50.870;4.316;2022-11-14T08:39:41;8.60;99.90
21787;DHT22;11055;50.870;4.316;2022-11-14T08:42:07;8.60;99.90
21787;DHT22;11055;50.870;4.316;2022-11-14T08:44:32;8.60;99.90
21787;DHT22;11055;50.870;4.316;2022-11-14T08:46:58;8.60;99.90
21787;DHT22;11055;50.870;4.316;2022-11-14T08:49:25;8.60;99.90
21787;DHT22;11055;50.870;4.316;2022-11-14T08:51:51;8.40;99.90
21787;DHT22;11055;50.870;4.316;2022-11-14T08:54:18;8.30;99.90
21787;DHT22;11055;50.870;4.316;2022-11-14T08:56:44;8.20;99.90
21787;DHT22;11055;50.870;4.316;2022-11-14T08:59:09;8.20;99.90
21787;DHT22;11055;50.870;4.316;2022-11-14T09:01:35;8.30;99.90
21787;DHT22;11055;50.870;4.316;2022-11-14T09:04:01;8.40;99.90
21787;DHT22;11055;50.870;4.316;2022-11-14T09:06:26;8.60;99.90
21787;DHT22;11055;50.870;4.316;2022-11-14T09:08:52;8.60;99.90
21787;DHT22;11055;50.870;4.316;2022-11-14T09:11:18;8.60;99.90
21787;DHT22;11055;50.870;4.316;2022-11-14T09:13:44;8.60;99.90
21787;DHT22;11055;50.870;4.316;2022-11-14T09:16:09;8.80;99.90
21787;DHT22;11055;50.870;4.316;2022-11-14T09:18:36;8.90;99.90
21787;DHT22;11055;50.870;4.316;2022-11-14T09:21:04;8.70;99.90
21787;DHT22;11055;50.870;4.316;2022-11-14T09:23:30;8.40;99.90
21787;DHT22;11055;50.870;4.316;2022-11-14T09:25:56;8.40;99.90
21787;DHT22;11055;50.870;4.316;2022-11-14T09:28:25;8.50;99.90
21787;DHT22;11055;50.870;4.316;2022-11-14T09:30:50;8.40;99.90
21787;DHT22;11055;50.870;4.316;2022-11-14T09:33:16;8.50;99.90
21787;DHT22;11055;50.870;4.316;2022-11-14T09:35:42;8.60;99.90
21787;DHT22;11055;50.870;4.316;2022-11-14T09:38:09;8.80;99.90
21787;DHT22;11055;50.870;4.316;2022-11-14T09:44:01;9.10;99.90
21787;DHT22;11055;50.870;4.316;2022-11-14T09:46:43;9.10;99.90
21787;DHT22;11055;50.870;4.316;2022-11-14T09:49:29;9.10;99.90
21787;DHT22;11055;50.870;4.316;2022-11-14T09:54:45;9.20;99.90
21787;DHT22;11055;50.870;4.316;2022-11-14T09:57:16;9.40;99.90
21787;DHT22;11055;50.870;4.316;2022-11-14T09:59:42;9.60;99.90
21787;DHT22;11055;50.870;4.316;2022-11-14T10:02:15;9.60;99.90
21787;DHT22;11055;50.870;4.316;2022-11-14T10:10:37;9.70;99.90
21787;DHT22;11055;50.870;4.316;2022-11-14T10:15:51;9.80;99.90
21787;DHT22;11055;50.870;4.316;2022-11-14T10:20:56;10.10;99.90
21787;DHT22;11055;50.870;4.316;2022-11-14T10:23:46;10.20;99.90
21787;DHT22;11055;50.870;4.316;2022-11-14T10:26:27;10.30;99.90
21787;DHT22;11055;50.870;4.316;2022-11-14T10:31:51;10.00;99.90
21787;DHT22;11055;50.870;4.316;2022-11-14T10:34:23;9.80;99.90
21787;DHT22;11055;50.870;4.316;2022-11-14T10:37:02;9.90;99.90
21787;DHT22;11055;50.870;4.316;2022-11-14T10:39:54;10.00;99.90
21787;DHT22;11055;50.870;4.316;2022-11-14T10:42:32;10.10;99.90
21787;DHT22;11055;50.870;4.316;2022-11-14T10:47:59;10.20;99.90
21787;DHT22;11055;50.870;4.316;2022-11-14T10:53:22;10.20;99.90
21787;DHT22;11055;50.870;4.316;2022-11-14T10:55:49;10.10;99.90
21787;DHT22;11055;50.870;4.316;2022-11-14T10:58:16;10.10;99.90
21787;DHT22;11055;50.870;4.316;2022-11-14T11:00:41;10.10;99.90
21787;DHT22;11055;50.870;4.316;2022-11-14T11:03:08;10.10;99.90
21787;DHT22;11055;50.870;4.316;2022-11-14T11:05:45;10.00;99.90
21787;DHT22;11055;50.870;4.316;2022-11-14T11:08:11;9.80;99.90
21787;DHT22;11055;50.870;4.316;2022-11-14T11:10:58;9.30;99.90
21787;DHT22;11055;50.870;4.316;2022-11-14T11:13:50;8.90;99.90
21787;DHT22;11055;50.870;4.316;2022-11-14T11:16:22;8.80;99.90
21787;DHT22;11055;50.870;4.316;2022-11-14T11:18:49;8.80;99.90
21787;DHT22;11055;50.870;4.316;2022-11-14T11:21:17;9.00;99.90
21787;DHT22;11055;50.870;4.316;2022-11-14T11:23:54;9.10;99.90
21787;DHT22;11055;50.870;4.316;2022-11-14T11:26:26;9.30;99.90
21787;DHT22;11055;50.870;4.316;2022-11-14T11:31:56;8.70;99.90
21787;DHT22;11055;50.870;4.316;2022-11-14T11:34:25;8.70;99.90
21787;DHT22;11055;50.870;4.316;2022-11-14T11:39:51;9.00;99.90
21787;DHT22;11055;50.870;4.316;2022-11-14T11:42:24;9.30;99.90
21787;DHT22;11055;50.870;4.316;2022-11-14T11:44:54;9.50;99.90
21787;DHT22;11055;50.870;4.316;2022-11-14T11:47:24;9.70;99.90
21787;DHT22;11055;50.870;4.316;2022-11-14T11:49:51;9.80;99.90
21787;DHT22;11055;50.870;4.316;2022-11-14T11:52:34;9.90;99.90
21787;DHT22;11055;50.870;4.316;2022-11-14T11:55:16;9.90;99.90
21787;DHT22;11055;50.870;4.316;2022-11-14T11:58:32;9.90;99.90
21787;DHT22;11055;50.870;4.316;2022-11-14T12:00:51;9.80;99.90
21787;DHT22;11055;50.870;4.316;2022-11-14T12:03:20;9.80;99.90
21787;DHT22;11055;50.870;4.316;2022-11-14T12:06:18;9.70;99.90
21787;DHT22;11055;50.870;4.316;2022-11-14T12:09:20;9.80;99.90
21787;DHT22;11055;50.870;4.316;2022-11-14T12:11:54;10.00;99.90
21787;DHT22;11055;50.870;4.316;2022-11-14T12:31:00;11.50;99.90
21787;DHT22;11055;50.870;4.316;2022-11-14T12:33:37;10.60;99.90
21787;DHT22;11055;50.870;4.316;2022-11-14T12:36:07;10.50;99.90
21787;DHT22;11055;50.870;4.316;2022-11-14T12:38:42;10.30;99.90
21787;DHT22;11055;50.870;4.316;2022-11-14T12:41:09;10.10;99.90
21787;DHT22;11055;50.870;4.316;2022-11-14T12:43:39;10.20;99.90
21787;DHT22;11055;50.870;4.316;2022-11-14T12:46:08;10.30;99.90
21787;DHT22;11055;50.870;4.316;2022-11-14T12:48:46;10.00;99.90
21787;DHT22;11055;50.870;4.316;2022-11-14T12:53:50;10.10;99.90
21787;DHT22;11055;50.870;4.316;2022-11-14T12:56:19;10.10;99.90
21787;DHT22;11055;50.870;4.316;2022-11-14T12:59:10;9.80;99.90
21787;DHT22;11055;50.870;4.316;2022-11-14T13:04:39;9.40;99.90
21787;DHT22;11055;50.870;4.316;2022-11-14T13:12:30;9.40;99.90
21787;DHT22;11055;50.870;4.316;2022-11-14T13:18:24;9.40;99.90
21787;DHT22;11055;50.870;4.316;2022-11-14T13:24:04;9.30;99.90
21787;DHT22;11055;50.870;4.316;2022-11-14T13:28:56;9.20;99.90
21787;DHT22;11055;50.870;4.316;2022-11-14T13:33:52;9.20;99.90
21787;DHT22;11055;50.870;4.316;2022-11-14T13:39:38;9.20;99.90
21787;DHT22;11055;50.870;4.316;2022-11-14T13:45:16;9.20;99.90
21787;DHT22;11055;50.870;4.316;2022-11-14T13:50:35;9.00;99.90
21787;DHT22;11055;50.870;4.316;2022-11-14T13:53:10;8.90;99.90
21787;DHT22;11055;50.870;4.316;2022-11-14T14:03:27;9.00;99.90
21787;DHT22;11055;50.870;4.316;2022-11-14T14:11:45;9.00;99.90
21787;DHT22;11055;50.870;4.316;2022-11-14T14:17:06;8.40;99.90
21787;DHT22;11055;50.870;4.316;2022-11-14T14:19:56;8.30;99.90
21787;DHT22;11055;50.870;4.316;2022-11-14T14:22:31;8.50;99.90
21787;DHT22;11055;50.870;4.316;2022-11-14T14:25:05;8.60;99.90
21787;DHT22;11055;50.870;4.316;2022-11-14T14:27:35;8.70;99.90
21787;DHT22;11055;50.870;4.316;2022-11-14T14:30:09;8.50;99.90
21787;DHT22;11055;50.870;4.316;2022-11-14T14:32:35;8.50;99.90
21787;DHT22;11055;50.870;4.316;2022-11-14T14:37:52;8.80;99.90
21787;DHT22;11055;50.870;4.316;2022-11-14T14:42:55;9.10;99.90
21787;DHT22;11055;50.870;4.316;2022-11-14T14:45:26;9.20;99.90
21787;DHT22;11055;50.870;4.316;2022-11-14T14:48:02;9.30;99.90
21787;DHT22;11055;50.870;4.316;2022-11-14T14:50:40;9.20;99.90
21787;DHT22;11055;50.870;4.316;2022-11-14T14:53:16;9.20;99.90
21787;DHT22;11055;50.870;4.316;2022-11-14T14:55:51;9.10;99.90
21787;DHT22;11055;50.870;4.316;2022-11-14T15:03:46;8.90;99.90
21787;DHT22;11055;50.870;4.316;2022-11-14T15:08:59;8.80;99.90
21787;DHT22;11055;50.870;4.316;2022-11-14T15:11:26;8.70;99.90
21787;DHT22;11055;50.870;4.316;2022-11-14T15:13:57;8.80;99.90
21787;DHT22;11055;50.870;4.316;2022-11-14T15:16:24;8.90;99.90
21787;DHT22;11055;50.870;4.316;2022-11-14T15:18:52;9.00;99.90
21787;DHT22;11055;50.870;4.316;2022-11-14T15:21:27;9.00;99.90
21787;DHT22;11055;50.870;4.316;2022-11-14T15:26:43;9.10;99.90
21787;DHT22;11055;50.870;4.316;2022-11-14T15:29:17;9.20;99.90
21787;DHT22;11055;50.870;4.316;2022-11-14T15:31:49;9.20;99.90
21787;DHT22;11055;50.870;4.316;2022-11-14T15:34:35;9.20;99.90
21787;DHT22;11055;50.870;4.316;2022-11-14T15:39:37;8.70;99.90
21787;DHT22;11055;50.870;4.316;2022-11-14T15:44:51;8.80;99.90
21787;DHT22;11055;50.870;4.316;2022-11-14T15:49:57;8.90;99.90
21787;DHT22;11055;50.870;4.316;2022-11-14T15:52:31;9.00;99.90
21787;DHT22;11055;50.870;4.316;2022-11-14T15:54:57;9.10;99.90
21787;DHT22;11055;50.870;4.316;2022-11-14T15:57:23;9.10;99.90
21787;DHT22;11055;50.870;4.316;2022-11-14T15:59:48;9.00;99.90
21787;DHT22;11055;50.870;4.316;2022-11-14T16:02:17;9.10;99.90
21787;DHT22;11055;50.870;4.316;2022-11-14T16:04:44;9.30;99.90
21787;DHT22;11055;50.870;4.316;2022-11-14T16:07:12;9.20;99.90
21787;DHT22;11055;50.870;4.316;2022-11-14T16:09:38;9.00;99.90
21787;DHT22;11055;50.870;4.316;2022-11-14T16:12:04;8.80;99.90
21787;DHT22;11055;50.870;4.316;2022-11-14T16:14:29;8.70;99.90
21787;DHT22;11055;50.870;4.316;2022-11-14T16:16:55;8.70;99.90
21787;DHT22;11055;50.870;4.316;2022-11-14T16:19:21;8.70;99.90
21787;DHT22;11055;50.870;4.316;2022-11-14T16:21:46;8.90;99.90
21787;DHT22;11055;50.870;4.316;2022-11-14T16:24:15;9.10;99.90
21787;DHT22;11055;50.870;4.316;2022-11-14T16:26:42;9.20;99.90
21787;DHT22;11055;50.870;4.316;2022-11-14T16:29:07;9.40;99.90
21787;DHT22;11055;50.870;4.316;2022-11-14T16:31:35;9.30;99.90
21787;DHT22;11055;50.870;4.316;2022-11-14T16:34:02;9.30;99.90
21787;DHT22;11055;50.870;4.316;2022-11-14T16:36:28;9.10;99.90
21787;DHT22;11055;50.870;4.316;2022-11-14T16:38:58;9.20;99.90
21787;DHT22;11055;50.870;4.316;2022-11-14T16:41:24;9.20;99.90
21787;DHT22;11055;50.870;4.316;2022-11-14T16:43:53;9.20;99.90
21787;DHT22;11055;50.870;4.316;2022-11-14T16:46:19;9.30;99.90
21787;DHT22;11055;50.870;4.316;2022-11-14T16:48:45;9.30;99.90
21787;DHT22;11055;50.870;4.316;2022-11-14T16:51:11;9.30;99.90
21787;DHT22;11055;50.870;4.316;2022-11-14T16:53:36;9.30;99.90
21787;DHT22;11055;50.870;4.316;2022-11-14T16:56:02;9.30;99.90
21787;DHT22;11055;50.870;4.316;2022-11-14T16:58:28;9.40;99.90
21787;DHT22;11055;50.870;4.316;2022-11-14T17:00:54;9.40;99.90
21787;DHT22;11055;50.870;4.316;2022-11-14T17:03:20;9.10;99.90
21787;DHT22;11055;50.870;4.316;2022-11-14T17:05:48;9.00;99.90
21787;DHT22;11055;50.870;4.316;2022-11-14T17:08:14;9.00;99.90
21787;DHT22;11055;50.870;4.316;2022-11-14T17:10:43;9.10;99.90
21787;DHT22;11055;50.870;4.316;2022-11-14T17:13:10;8.90;99.90
21787;DHT22;11055;50.870;4.316;2022-11-14T17:15:36;8.60;99.90
21787;DHT22;11055;50.870;4.316;2022-11-14T17:18:03;8.50;99.90
21787;DHT22;11055;50.870;4.316;2022-11-14T17:20:29;8.50;99.90
21787;DHT22;11055;50.870;4.316;2022-11-14T17:22:55;8.70;99.90
21787;DHT22;11055;50.870;4.316;2022-11-14T17:25:21;8.80;99.90
21787;DHT22;11055;50.870;4.316;2022-11-14T17:27:47;8.80;99.90
21787;DHT22;11055;50.870;4.316;2022-11-14T17:30:17;9.10;99.90
21787;DHT22;11055;50.870;4.316;2022-11-14T17:32:43;9.20;99.90
21787;DHT22;11055;50.870;4.316;2022-11-14T17:35:09;9.30;99.90
21787;DHT22;11055;50.870;4.316;2022-11-14T17:37:35;9.30;99.90
21787;DHT22;11055;50.870;4.316;2022-11-14T17:40:00;9.40;99.90
21787;DHT22;11055;50.870;4.316;2022-11-14T17:42:26;9.50;99.90
21787;DHT22;11055;50.870;4.316;2022-11-14T17:44:52;9.60;99.90
21787;DHT22;11055;50.870;4.316;2022-11-14T17:47:18;9.70;99.90
21787;DHT22;11055;50.870;4.316;2022-11-14T17:49:44;9.70;99.90
21787;DHT22;11055;50.870;4.316;2022-11-14T17:52:10;9.70;99.90
21787;DHT22;11055;50.870;4.316;2022-11-14T17:54:35;9.70;99.90